Terminal Aerodrome Forecast
Issued by NWS

Home | Current Version | Previous Version | Text Only | Print | Product List | Glossary On
Versions: 1 2 3 4 5 6 7 8 9 10 11 12 13 14 15 16 17 18 19 20 21 22 23 24 25 26 27 28
000
FTUS45 KGJT 101142
TAFTEX
TAF
KTEX 101142Z 1012/1112 08004KT P6SM FEW150 SCT200
     FM101400 21010KT P6SM SCT250 WS020/25030KT
     FM101800 26008KT P6SM SCT250
     FM102200 25011G28KT P6SM VCSH BKN120
     FM110100 25007KT P6SM VCSH BKN060
     FM110300 23010G28KT P6SM -SN BKN045=

USA.gov is the U.S. government's official web portal to all federal, state and local government web resources and services.